createdAt,value
2023-05-10T00:00:19.953Z,16.35
2023-05-10T00:03:23.980Z,15.98
2023-05-10T00:06:28.023Z,16.06
2023-05-10T00:09:32.137Z,16.21
2023-05-10T00:12:36.020Z,16.37
2023-05-10T00:15:39.819Z,16.06
2023-05-10T00:18:43.856Z,15.87
2023-05-10T00:21:47.992Z,16.01
2023-05-10T00:24:52.095Z,16.17
2023-05-10T00:27:55.957Z,16.32
2023-05-10T00:30:59.832Z,16.04
2023-05-10T00:34:03.942Z,15.98
2023-05-10T00:37:08.061Z,16.05
2023-05-10T00:40:11.930Z,16.10
2023-05-10T00:43:15.994Z,16.08
2023-05-10T00:46:20.025Z,15.86
2023-05-10T00:49:24.092Z,15.63
2023-05-10T00:52:28.017Z,16.02
2023-05-10T00:55:31.908Z,16.02
2023-05-10T00:58:35.957Z,15.67
2023-05-10T01:01:40.114Z,15.72
2023-05-10T01:04:44.288Z,15.59
2023-05-10T01:07:48.341Z,15.63
2023-05-10T01:10:52.386Z,15.69
2023-05-10T01:13:56.551Z,15.61
2023-05-10T01:17:00.392Z,15.47
2023-05-10T01:20:04.509Z,15.83
2023-05-10T01:23:08.515Z,15.86
2023-05-10T01:26:12.540Z,15.77
2023-05-10T01:29:16.468Z,15.96
2023-05-10T01:32:20.614Z,15.83
2023-05-10T01:35:24.670Z,15.81
2023-05-10T01:38:28.591Z,15.63
2023-05-10T01:41:32.493Z,15.75
2023-05-10T01:44:36.638Z,15.79
2023-05-10T01:47:40.773Z,15.96
2023-05-10T01:50:44.572Z,15.94
2023-05-10T01:53:48.573Z,16.01
2023-05-10T01:56:52.395Z,16.02
2023-05-10T01:59:56.583Z,15.65
2023-05-10T02:03:00.795Z,15.57
2023-05-10T02:06:04.814Z,15.54
2023-05-10T02:09:08.860Z,15.20
2023-05-10T02:12:12.992Z,15.07
2023-05-10T02:15:17.010Z,15.29
2023-05-10T02:18:20.947Z,15.45
2023-05-10T02:21:24.969Z,15.35
2023-05-10T02:24:28.908Z,15.53
2023-05-10T02:27:33.298Z,15.46
2023-05-10T02:30:37.298Z,15.34
2023-05-10T02:33:42.185Z,15.52
2023-05-10T02:36:46.014Z,15.53
2023-05-10T02:39:50.185Z,15.32
2023-05-10T02:46:17.204Z,15.02
2023-05-10T02:49:21.645Z,15.10
2023-05-10T02:52:25.392Z,15.27
2023-05-10T02:55:29.320Z,15.06
2023-05-10T02:58:33.276Z,15.07
2023-05-10T03:01:37.373Z,15.19
2023-05-10T03:04:41.432Z,14.76
2023-05-10T03:07:45.245Z,14.82
2023-05-10T03:10:49.150Z,14.87
2023-05-10T03:13:55.470Z,14.79
2023-05-10T03:16:59.527Z,14.88
2023-05-10T03:20:04.375Z,14.86
2023-05-10T03:23:08.275Z,14.90
2023-05-10T03:26:12.480Z,14.96
2023-05-10T03:29:16.914Z,15.25
2023-05-10T03:32:20.968Z,15.32
2023-05-10T03:35:24.765Z,15.14
2023-05-10T03:38:30.529Z,15.28
2023-05-10T03:41:34.980Z,15.12
2023-05-10T03:44:38.953Z,15.14
2023-05-10T03:47:42.980Z,15.35
2023-05-10T03:50:46.816Z,15.00
2023-05-10T03:53:55.266Z,14.57
2023-05-10T03:56:59.562Z,14.56
2023-05-10T04:00:03.315Z,14.62
2023-05-10T04:03:07.477Z,14.78
2023-05-10T04:06:11.345Z,14.42
2023-05-10T04:09:15.201Z,14.63
2023-05-10T04:12:19.195Z,14.53
2023-05-10T04:15:23.609Z,14.36
2023-05-10T04:27:38.551Z,14.75
2023-05-10T06:33:48.464Z,16.70
2023-05-10T07:14:46.448Z,17.22
2023-05-10T07:17:50.658Z,17.08
2023-05-10T07:21:04.734Z,16.98
2023-05-10T07:24:08.885Z,17.11
2023-05-10T07:27:17.088Z,16.86
2023-05-10T07:30:24.640Z,16.71
2023-05-10T07:33:28.805Z,17.24
2023-05-10T07:40:01.335Z,17.17
2023-05-10T07:46:39.598Z,17.67
2023-05-10T07:49:47.188Z,17.42
2023-05-10T07:56:18.557Z,17.40
2023-05-10T07:59:28.870Z,17.89
2023-05-10T08:02:39.967Z,17.95
2023-05-10T08:05:54.824Z,18.22
2023-05-10T08:08:59.974Z,18.03
2023-05-10T08:12:05.564Z,17.66
2023-05-10T08:15:33.827Z,17.70
2023-05-10T08:22:09.108Z,17.80
2023-05-10T08:28:49.406Z,17.41
2023-05-10T08:35:27.307Z,16.80
2023-05-10T08:38:53.694Z,17.30
2023-05-10T08:42:18.856Z,17.46
2023-05-10T08:45:26.328Z,17.56
2023-05-10T08:48:30.779Z,17.82
2023-05-10T08:51:43.804Z,17.83
2023-05-10T09:00:46.819Z,17.45
2023-05-10T09:08:55.399Z,19.21
2023-05-10T09:16:21.579Z,18.29
2023-05-10T09:19:01.358Z,18.11
2023-05-10T09:22:09.085Z,17.96
2023-05-10T09:39:15.799Z,19.11
2023-05-10T09:53:00.469Z,18.56
2023-05-10T09:58:45.785Z,17.81
2023-05-10T10:01:50.641Z,18.43
2023-05-10T10:04:54.743Z,17.88
2023-05-10T10:07:59.339Z,18.77
2023-05-10T10:11:03.292Z,18.85
2023-05-10T10:14:07.582Z,18.23
2023-05-10T10:17:11.461Z,18.55
2023-05-10T10:20:15.849Z,17.86
2023-05-10T10:23:21.138Z,16.51
2023-05-10T10:26:25.245Z,16.68
2023-05-10T10:29:29.452Z,17.18
2023-05-10T10:32:34.354Z,16.82
2023-05-10T10:35:38.419Z,16.65
2023-05-10T10:38:42.839Z,16.08
2023-05-10T10:41:46.795Z,16.07
2023-05-10T10:44:52.419Z,16.21
2023-05-10T10:47:57.942Z,16.50
2023-05-10T10:51:01.824Z,16.54
2023-05-10T10:54:06.182Z,16.45
2023-05-10T10:57:09.979Z,17.29
2023-05-10T11:00:14.071Z,17.62
2023-05-10T11:03:18.274Z,17.53
2023-05-10T11:06:22.170Z,17.83
2023-05-10T11:09:26.342Z,18.09
2023-05-10T11:12:30.268Z,18.52
2023-05-10T11:15:34.056Z,18.72
2023-05-10T11:18:38.555Z,18.73
2023-05-10T11:21:45.625Z,18.51
2023-05-10T11:24:50.247Z,18.15
2023-05-10T11:31:18.885Z,18.29
2023-05-10T11:34:23.323Z,18.23
2023-05-10T11:37:30.610Z,18.49
2023-05-10T11:40:36.604Z,18.25
2023-05-10T11:43:47.778Z,18.51
2023-05-10T11:49:59.917Z,18.98
2023-05-10T11:53:09.468Z,19.10
2023-05-10T11:56:13.611Z,19.26
2023-05-10T12:02:52.289Z,18.60
2023-05-10T12:06:02.437Z,18.62
2023-05-10T12:09:06.674Z,18.79
2023-05-10T12:15:19.250Z,19.14
2023-05-10T12:18:23.344Z,19.29
2023-05-10T12:21:28.343Z,19.38
2023-05-10T12:24:33.279Z,19.50
2023-05-10T13:00:57.830Z,20.20
2023-05-10T13:04:03.802Z,19.63
2023-05-10T13:10:33.215Z,19.59
2023-05-10T13:13:37.720Z,19.60
2023-05-10T13:16:45.707Z,19.22
2023-05-10T13:19:51.077Z,19.09
2023-05-10T13:23:21.041Z,19.18
2023-05-10T13:26:24.837Z,19.14
2023-05-10T13:29:30.643Z,19.07
2023-05-10T13:32:51.893Z,19.04
2023-05-10T13:36:08.528Z,19.04
2023-05-10T13:39:16.552Z,19.35
2023-05-10T13:42:20.865Z,19.33
2023-05-10T13:45:25.568Z,19.56
2023-05-10T13:48:32.921Z,19.80
2023-05-10T13:51:55.806Z,19.63
2023-05-10T13:55:29.546Z,20.05
2023-05-10T14:02:05.366Z,20.07
2023-05-10T14:08:34.426Z,19.44
2023-05-10T14:11:39.575Z,19.03
2023-05-10T14:25:46.063Z,19.59
2023-05-10T14:32:16.874Z,19.70
2023-05-10T14:38:41.184Z,20.39
2023-05-10T14:41:46.438Z,19.93
2023-05-10T14:44:52.207Z,19.75
2023-05-10T14:47:56.684Z,19.70
2023-05-10T14:51:23.862Z,19.88
2023-05-10T14:54:29.140Z,19.64
2023-05-10T14:57:36.136Z,20.14
2023-05-10T15:00:41.624Z,19.99
2023-05-10T15:03:46.223Z,20.07
2023-05-10T15:06:51.851Z,20.07
2023-05-10T15:09:59.317Z,20.33
2023-05-10T15:13:03.607Z,20.32
2023-05-10T15:16:11.699Z,20.19
2023-05-10T15:19:18.205Z,19.98
2023-05-10T15:22:23.358Z,20.26
2023-05-10T15:25:27.605Z,20.44
2023-05-10T15:28:32.490Z,20.33
2023-05-10T15:31:37.758Z,20.25
2023-05-10T15:34:43.046Z,20.07
2023-05-10T15:37:49.162Z,19.54
2023-05-10T15:41:03.362Z,19.26
2023-05-10T15:44:09.015Z,19.11
2023-05-10T15:47:17.645Z,19.35
2023-05-10T15:50:22.015Z,19.73
2023-05-10T15:53:25.922Z,19.19
2023-05-10T16:06:50.677Z,19.40
2023-05-10T16:46:48.531Z,17.47
2023-05-10T16:49:57.071Z,17.75
2023-05-10T16:53:01.166Z,17.88
2023-05-10T16:56:06.587Z,17.35
2023-05-10T16:59:10.838Z,17.20
2023-05-10T17:02:15.050Z,17.64
2023-05-10T17:05:19.124Z,17.46
2023-05-10T17:08:23.044Z,18.04
2023-05-10T17:11:27.212Z,17.84
2023-05-10T17:14:31.125Z,17.77
2023-05-10T17:17:35.195Z,18.03
2023-05-10T17:20:39.138Z,17.86
2023-05-10T17:23:43.123Z,17.58
2023-05-10T17:26:46.916Z,17.69
2023-05-10T17:29:51.188Z,17.94
2023-05-10T17:32:55.298Z,17.58
2023-05-10T17:35:59.164Z,18.10
2023-05-10T17:39:04.373Z,17.51
2023-05-10T17:42:08.198Z,17.18
2023-05-10T17:45:12.647Z,16.92
2023-05-10T17:48:18.806Z,16.96
2023-05-10T17:51:23.943Z,16.98
2023-05-10T17:54:27.832Z,16.66
2023-05-10T17:57:31.626Z,16.43
2023-05-10T18:00:35.546Z,16.55
2023-05-10T18:03:39.671Z,17.05
2023-05-10T18:06:43.704Z,16.90
2023-05-10T18:09:47.690Z,16.55
2023-05-10T18:12:54.884Z,16.86
2023-05-10T18:16:00.638Z,17.10
2023-05-10T18:19:05.205Z,16.88
2023-05-10T18:22:10.871Z,16.74
2023-05-10T18:25:18.598Z,16.92
2023-05-10T18:28:24.114Z,16.71
2023-05-10T18:31:41.145Z,16.69
2023-05-10T18:34:53.221Z,16.62
2023-05-10T18:37:58.238Z,16.52
2023-05-10T18:41:02.049Z,16.53
2023-05-10T18:44:05.807Z,16.37
2023-05-10T18:47:10.911Z,16.17
2023-05-10T18:50:14.805Z,15.98
2023-05-10T18:53:18.671Z,15.99
2023-05-10T18:59:44.536Z,16.03
2023-05-10T19:02:49.007Z,16.23
2023-05-10T19:05:53.430Z,16.18
2023-05-10T19:08:57.226Z,15.76
2023-05-10T19:12:01.090Z,15.67
2023-05-10T19:15:05.057Z,15.51
2023-05-10T19:18:09.793Z,15.80
2023-05-10T19:21:14.058Z,16.01
2023-05-10T19:24:17.966Z,16.07
2023-05-10T19:27:24.806Z,15.98
2023-05-10T19:30:30.240Z,16.11
2023-05-10T19:33:34.604Z,15.86
2023-05-10T19:36:38.276Z,15.46
2023-05-10T19:39:42.538Z,15.01
2023-05-10T19:42:46.680Z,14.81
2023-05-10T19:45:50.827Z,15.17
2023-05-10T19:48:54.764Z,15.16
2023-05-10T19:51:58.969Z,14.75
2023-05-10T19:55:03.134Z,14.46
2023-05-10T19:58:07.049Z,14.88
2023-05-10T20:01:10.976Z,14.23
2023-05-10T20:04:14.910Z,13.90
2023-05-10T20:07:20.741Z,13.85
2023-05-10T20:10:26.892Z,14.23
2023-05-10T20:13:31.919Z,14.29
2023-05-10T20:16:35.996Z,14.87
2023-05-10T20:19:41.409Z,14.77
2023-05-10T20:22:56.108Z,15.07
2023-05-10T20:26:02.538Z,15.30
2023-05-10T20:29:06.196Z,15.36
2023-05-10T20:32:26.100Z,15.07
2023-05-10T20:35:32.820Z,15.11
2023-05-10T20:38:36.885Z,15.27
2023-05-10T20:41:40.695Z,15.15
2023-05-10T20:44:44.533Z,15.23
2023-05-10T20:47:48.266Z,15.33
2023-05-10T20:50:52.253Z,15.10
2023-05-10T20:53:56.506Z,15.15
2023-05-10T20:57:00.267Z,15.26
2023-05-10T21:00:04.586Z,15.37
2023-05-10T21:03:08.711Z,15.59
2023-05-10T21:06:12.855Z,15.54
2023-05-10T21:09:16.833Z,15.10
2023-05-10T21:12:20.776Z,15.49
2023-05-10T21:15:24.998Z,15.49
2023-05-10T21:18:29.406Z,15.35
2023-05-10T21:21:33.444Z,14.80
2023-05-10T21:24:37.662Z,14.81
2023-05-10T21:27:41.659Z,14.95
2023-05-10T21:30:45.914Z,14.76
2023-05-10T21:33:50.169Z,15.14
2023-05-10T21:36:54.339Z,15.11
2023-05-10T21:39:58.485Z,15.10
2023-05-10T21:43:02.532Z,14.89
2023-05-10T21:46:06.519Z,14.32
2023-05-10T21:49:10.330Z,14.17
2023-05-10T21:52:14.316Z,14.39
2023-05-10T21:55:18.029Z,13.92
2023-05-10T21:58:22.013Z,13.58
2023-05-10T22:01:26.233Z,13.77
2023-05-10T22:04:30.314Z,14.26
2023-05-10T22:07:34.592Z,13.64
2023-05-10T22:10:38.831Z,13.72
2023-05-10T22:13:42.640Z,14.40
2023-05-10T22:16:46.652Z,14.32
2023-05-10T22:19:50.719Z,14.59
2023-05-10T22:22:54.457Z,14.52
2023-05-10T22:25:58.156Z,14.30
2023-05-10T22:29:02.182Z,14.78
2023-05-10T22:32:06.298Z,14.88
2023-05-10T22:35:10.031Z,15.03
2023-05-10T22:38:14.436Z,14.93
2023-05-10T22:41:18.669Z,14.71
2023-05-10T22:44:22.753Z,14.96
2023-05-10T22:47:26.789Z,14.71
2023-05-10T22:50:30.771Z,14.88
2023-05-10T22:53:34.798Z,14.96
2023-05-10T22:56:39.096Z,15.10
2023-05-10T22:59:43.359Z,14.99
2023-05-10T23:02:47.261Z,15.07
2023-05-10T23:05:51.368Z,14.94
2023-05-10T23:08:55.435Z,15.11
2023-05-10T23:11:59.704Z,15.17
2023-05-10T23:15:03.760Z,15.23
2023-05-10T23:18:07.915Z,14.96
2023-05-10T23:21:12.037Z,14.94
2023-05-10T23:24:15.743Z,15.23
2023-05-10T23:27:19.856Z,14.90
2023-05-10T23:31:00.774Z,14.52
2023-05-10T23:34:02.956Z,14.78
2023-05-10T23:37:06.876Z,14.74
2023-05-10T23:40:10.941Z,14.51
2023-05-10T23:43:15.188Z,14.32
2023-05-10T23:46:19.079Z,14.23
2023-05-10T23:49:22.913Z,14.22
2023-05-10T23:52:26.899Z,14.62
2023-05-10T23:55:30.944Z,15.06
2023-05-10T23:58:35.021Z,15.29
